Time;durP1;ratioP1;P1;durP2;ratioP2;P2;SDS_P1;SDS_P2;PMS_P1;PMS_P2;Temp;Humidity;BMP_temperature;BMP_pressure;BME280_temperature;BME280_humidity;BME280_pressure;Samples;Min_cycle;Max_cycle;Signal;HPM_P1;HPM_P2
2022/07/07 00:00:00;;;;;;;4.22;3.87;;;;;;;18.35;99.92;99538.28;1781204;79;21044;-76
2022/07/07 00:02:27;;;;;;;5.85;3.87;;;;;;;18.33;100.00;99547.09;1785449;79;21245;-77
2022/07/07 00:04:54;;;;;;;3.83;3.50;;;;;;;18.35;99.15;99547.19;1790966;79;21029;-77
2022/07/07 00:07:21;;;;;;;5.17;3.62;;;;;;;18.26;97.86;99549.87;1751708;80;21065;-77
2022/07/07 00:09:49;;;;;;;3.37;3.10;;;;;;;18.07;98.05;99548.48;1787457;79;21034;-75
2022/07/07 00:12:16;;;;;;;5.58;3.60;;;;;;;18.02;98.56;99551.54;1776535;79;21557;-76
2022/07/07 00:14:42;;;;;;;5.60;2.77;;;;;;;17.98;98.89;99551.19;1766140;80;21215;-75
2022/07/07 00:17:10;;;;;;;4.92;3.02;;;;;;;17.98;99.28;99549.84;1785899;80;21065;-74
2022/07/07 00:19:37;;;;;;;4.62;2.95;;;;;;;17.98;98.04;99549.00;1772421;79;21024;-74
2022/07/07 00:22:04;;;;;;;4.58;3.33;;;;;;;17.88;98.38;99542.25;1782311;80;21013;-76
2022/07/07 00:24:30;;;;;;;3.25;2.58;;;;;;;17.88;97.37;99542.25;1777396;79;21108;-77
2022/07/07 00:26:57;;;;;;;2.92;2.62;;;;;;;17.84;97.79;99542.40;1787607;79;21100;-75
2022/07/07 00:29:23;;;;;;;4.45;2.80;;;;;;;17.78;97.73;99543.78;1782157;80;21060;-76
2022/07/07 00:31:51;;;;;;;3.00;2.67;;;;;;;17.79;98.04;99536.85;1778075;79;21052;-76
2022/07/07 00:34:18;;;;;;;4.87;2.52;;;;;;;17.79;98.04;99542.23;1778490;79;21150;-79
2022/07/07 00:36:44;;;;;;;3.22;2.35;;;;;;;17.74;97.53;99543.40;1774253;79;21057;-76
2022/07/07 00:39:12;;;;;;;2.92;1.70;;;;;;;17.72;96.80;99560.26;1781130;79;21790;-80
2022/07/07 00:41:38;;;;;;;2.00;1.90;;;;;;;17.64;96.18;99559.19;1787932;80;20998;-78
2022/07/07 00:44:07;;;;;;;2.02;1.70;;;;;;;17.49;96.19;99556.81;1772362;79;21005;-79
2022/07/07 00:46:46;;;;;;;2.85;1.60;;;;;;;17.48;96.51;99553.81;1743924;81;21080;-76
2022/07/07 00:49:13;;;;;;;2.25;1.67;;;;;;;17.48;96.62;99549.28;1785004;79;21049;-79
2022/07/07 00:51:41;;;;;;;3.12;1.92;;;;;;;17.40;95.79;99538.82;1775242;79;21625;-79
2022/07/07 00:54:08;;;;;;;2.62;1.27;;;;;;;17.39;95.50;99542.53;1810366;78;21092;-76
2022/07/07 00:56:35;;;;;;;3.62;1.37;;;;;;;17.34;95.59;99537.51;1814809;78;21053;-77
2022/07/07 00:59:07;;;;;;;1.25;1.12;;;;;;;17.27;95.74;99536.22;1794799;78;21545;-77
2022/07/07 01:01:37;;;;;;;1.47;1.37;;;;;;;17.25;94.78;99532.94;1762399;78;21016;-75
2022/07/07 01:04:07;;;;;;;1.40;1.30;;;;;;;17.16;94.05;99528.86;1782374;80;21729;-78
2022/07/07 01:06:34;;;;;;;2.08;1.40;;;;;;;17.00;93.50;99531.55;1778048;79;21008;-76
2022/07/07 01:09:00;;;;;;;4.00;1.62;;;;;;;16.92;93.69;99533.95;1771994;80;21571;-77
2022/07/07 01:11:27;;;;;;;1.35;1.25;;;;;;;16.85;94.16;99536.66;1755102;80;21536;-80
2022/07/07 01:13:53;;;;;;;2.85;1.40;;;;;;;16.77;94.29;99540.09;1787017;79;21060;-79
2022/07/07 01:16:20;;;;;;;1.52;1.42;;;;;;;16.71;93.96;99536.40;1786540;79;21536;-79
2022/07/07 01:18:46;;;;;;;2.52;1.40;;;;;;;16.68;94.31;99537.63;1752336;78;21124;-77
2022/07/07 01:21:13;;;;;;;1.72;1.37;;;;;;;16.60;94.20;99548.59;1777468;79;21072;-77
2022/07/07 01:23:40;;;;;;;2.65;1.40;;;;;;;16.58;94.14;99547.98;1807771;78;21057;-77
2022/07/07 01:26:07;;;;;;;1.22;1.12;;;;;;;16.56;94.25;99554.09;1800812;78;20942;-76
2022/07/07 01:28:34;;;;;;;1.67;1.22;;;;;;;16.51;95.09;99561.93;1807424;78;21146;-77
2022/07/07 01:31:01;;;;;;;4.00;1.30;;;;;;;16.51;95.48;99561.93;1820001;78;21033;-76
2022/07/07 01:33:27;;;;;;;2.42;1.42;;;;;;;16.55;95.29;99565.83;1823404;78;21076;-76
2022/07/07 01:35:54;;;;;;;2.00;1.20;;;;;;;16.50;95.51;99579.06;1776992;80;21093;-75
2022/07/07 01:38:21;;;;;;;3.60;1.45;;;;;;;16.55;95.50;99582.45;1767844;80;21029;-77
2022/07/07 01:40:48;;;;;;;1.75;1.30;;;;;;;16.55;95.51;99583.27;1791256;79;21238;-77
2022/07/07 01:43:14;;;;;;;1.25;1.10;;;;;;;16.49;95.68;99578.75;1814731;78;21010;-76
2022/07/07 01:45:43;;;;;;;2.25;1.20;;;;;;;16.51;95.91;99585.56;1800014;78;21072;-76
2022/07/07 01:48:09;;;;;;;4.78;1.20;;;;;;;16.55;96.54;99583.27;1785403;80;21081;-77
2022/07/07 01:50:36;;;;;;;2.35;1.32;;;;;;;16.50;95.41;99580.41;1775832;79;21009;-80
2022/07/07 01:53:02;;;;;;;4.37;1.15;;;;;;;16.49;95.80;99575.54;1772237;79;21204;-79
2022/07/07 01:55:29;;;;;;;2.42;1.52;;;;;;;16.55;95.44;99579.77;1760014;79;21027;-80
2022/07/07 01:57:58;;;;;;;3.98;1.98;;;;;;;16.51;95.83;99580.20;1757426;79;21679;-80
2022/07/07 02:00:25;;;;;;;1.20;1.20;;;;;;;16.46;94.74;99586.70;1770248;79;21048;-78
2022/07/07 02:02:51;;;;;;;1.47;1.17;;;;;;;16.50;94.54;99600.52;1769387;79;21049;-77
2022/07/07 02:05:18;;;;;;;2.45;1.30;;;;;;;16.46;94.08;99600.11;1772765;79;21966;-79
2022/07/07 02:07:47;;;;;;;2.85;1.17;;;;;;;16.43;93.95;99593.00;1767548;79;21041;-79
2022/07/07 02:11:12;;;;;;;1.70;1.30;;;;;;;16.51;93.45;99592.27;1762472;79;21080;-77
2022/07/07 02:12:41;;;;;;;1.30;1.20;;;;;;;16.54;93.11;99595.56;1761017;79;21493;-78
2022/07/07 02:15:08;;;;;;;2.12;1.10;;;;;;;16.53;93.76;99599.27;1764890;79;21036;-78
2022/07/07 02:17:36;;;;;;;2.80;1.20;;;;;;;16.63;93.44;99596.46;1770441;79;21104;-77
2022/07/07 02:20:06;;;;;;;1.80;1.40;;;;;;;16.70;93.09;99593.22;1756670;79;21065;-78
2022/07/07 02:22:33;;;;;;;1.98;1.30;;;;;;;16.68;92.35;99591.80;1764526;79;21480;-80
2022/07/07 02:25:00;;;;;;;3.10;1.32;;;;;;;16.69;92.02;99593.45;1761999;79;21085;-78
2022/07/07 02:27:26;;;;;;;2.00;1.20;;;;;;;16.70;91.56;99586.52;1755772;79;21535;-77
2022/07/07 02:29:54;;;;;;;1.30;1.20;;;;;;;16.63;91.43;99584.89;1764807;79;21049;-79
2022/07/07 02:32:21;;;;;;;1.40;1.00;;;;;;;16.61;91.60;99581.59;1757387;79;21065;-79
2022/07/07 02:34:48;;;;;;;1.45;1.12;;;;;;;16.64;91.26;99594.07;1756835;78;21080;-78
2022/07/07 02:37:14;;;;;;;1.30;1.20;;;;;;;16.56;90.94;99600.20;1771125;79;21057;-75
2022/07/07 02:39:41;;;;;;;1.75;1.30;;;;;;;16.51;91.45;99600.31;1764836;79;21021;-76
2022/07/07 02:42:08;;;;;;;1.30;1.20;;;;;;;16.56;91.69;99609.58;1768457;79;21088;-78
2022/07/07 02:44:34;;;;;;;2.27;1.22;;;;;;;16.54;91.68;99612.47;1759143;79;21655;-78
2022/07/07 02:47:03;;;;;;;1.52;1.15;;;;;;;16.56;91.54;99615.77;1772182;79;21029;-76
2022/07/07 02:49:30;;;;;;;2.50;1.40;;;;;;;16.57;91.06;99609.34;1767995;79;21057;-77
2022/07/07 02:51:56;;;;;;;4.62;1.70;;;;;;;16.52;91.53;99617.22;1770284;78;21009;-76
2022/07/07 02:54:23;;;;;;;2.15;1.65;;;;;;;16.51;91.31;99615.56;1779764;79;21325;-77
2022/07/07 02:56:50;;;;;;;3.22;1.10;;;;;;;16.54;91.16;99615.67;1770313;80;21054;-79
2022/07/07 02:59:17;;;;;;;1.57;1.20;;;;;;;16.52;91.80;99615.88;1768581;80;21095;-78
2022/07/07 03:01:43;;;;;;;1.57;0.93;;;;;;;16.53;92.26;99610.80;1765624;79;21041;-81
2022/07/07 03:04:10;;;;;;;3.20;1.30;;;;;;;16.64;91.35;99618.73;1778476;80;21020;-76
2022/07/07 03:06:36;;;;;;;2.02;1.00;;;;;;;16.66;91.37;99626.87;1770603;80;21768;-82
2022/07/07 03:09:03;;;;;;;2.72;1.00;;;;;;;16.60;90.85;99621.01;1782119;80;20966;-77
2022/07/07 03:11:31;;;;;;;2.35;1.25;;;;;;;16.61;91.23;99618.64;1779426;80;21037;-80
2022/07/07 03:13:57;;;;;;;2.37;1.35;;;;;;;16.68;91.16;99620.77;1776748;80;21527;-77
2022/07/07 03:16:24;;;;;;;1.62;1.17;;;;;;;16.67;90.94;99623.16;1775630;80;21620;-77
2022/07/07 03:18:51;;;;;;;1.20;1.10;;;;;;;16.66;90.89;99618.00;1767554;80;22246;-78
2022/07/07 03:21:17;;;;;;;3.45;1.20;;;;;;;16.69;90.30;99617.59;1761752;80;20997;-77
2022/07/07 03:23:44;;;;;;;1.30;1.00;;;;;;;16.63;90.87;99620.60;1753604;80;21101;-77
2022/07/07 03:26:10;;;;;;;2.35;1.20;;;;;;;16.65;91.26;99625.23;1776539;80;20978;-77
2022/07/07 03:28:37;;;;;;;1.77;1.30;;;;;;;16.75;91.28;99621.30;1784958;80;21089;-77
2022/07/07 03:31:03;;;;;;;3.65;1.00;;;;;;;16.76;90.65;99617.56;1767221;80;21144;-78
2022/07/07 03:33:30;;;;;;;2.27;1.25;;;;;;;16.75;90.62;99620.77;1761288;80;21048;-76
2022/07/07 03:35:57;;;;;;;2.22;1.02;;;;;;;16.83;90.89;99633.16;1777371;79;21546;-81
2022/07/07 03:38:23;;;;;;;2.30;1.35;;;;;;;16.84;90.36;99633.45;1736300;80;21485;-78
2022/07/07 03:40:50;;;;;;;2.08;1.20;;;;;;;16.79;90.53;99632.72;1769316;79;21506;-77
2022/07/07 03:43:16;;;;;;;10.50;1.87;;;;;;;16.84;89.93;99633.45;1760088;80;21796;-78
2022/07/07 03:45:43;;;;;;;2.42;1.40;;;;;;;16.87;89.43;99637.88;1775771;80;21076;-79
2022/07/07 03:48:10;;;;;;;3.27;1.37;;;;;;;16.85;89.04;99641.81;1768954;80;21001;-80
2022/07/07 03:50:36;;;;;;;3.22;1.40;;;;;;;16.76;89.72;99647.06;1779256;80;21552;-81
2022/07/07 03:53:03;;;;;;;1.65;1.42;;;;;;;16.79;89.56;99657.39;1770438;80;21021;-78
2022/07/07 03:55:30;;;;;;;3.35;1.37;;;;;;;16.84;89.38;99657.09;1763085;80;21293;-75
2022/07/07 03:57:56;;;;;;;2.08;1.30;;;;;;;16.85;89.66;99656.57;1774611;79;20990;-77
2022/07/07 04:00:23;;;;;;;1.80;1.50;;;;;;;16.82;89.35;99656.45;1779044;80;20955;-81
2022/07/07 04:02:49;;;;;;;2.52;1.20;;;;;;;16.84;89.28;99650.39;1774298;80;21508;-81
2022/07/07 04:05:16;;;;;;;2.65;1.50;;;;;;;16.90;88.75;99655.40;1780018;80;21049;-79
2022/07/07 04:07:47;;;;;;;3.40;1.60;;;;;;;16.85;89.03;99653.89;1764417;80;21362;-78
2022/07/07 04:10:15;;;;;;;2.85;1.50;;;;;;;16.80;89.20;99651.78;1766975;80;21824;-79
2022/07/07 04:12:43;;;;;;;3.90;1.30;;;;;;;16.87;89.07;99655.84;1760954;80;21105;-78
2022/07/07 04:15:10;;;;;;;5.95;1.27;;;;;;;16.89;88.96;99659.13;1762474;80;21041;-78
2022/07/07 04:17:37;;;;;;;2.90;1.22;;;;;;;16.86;89.25;99664.41;1761273;80;21545;-78
2022/07/07 04:20:08;;;;;;;2.83;1.47;;;;;;;16.93;89.02;99667.06;1765173;80;21617;-78
2022/07/07 04:22:35;;;;;;;2.25;1.20;;;;;;;17.00;88.51;99679.13;1768247;80;21041;-78
2022/07/07 04:25:02;;;;;;;2.15;1.15;;;;;;;16.93;88.08;99673.77;1775756;80;21024;-79
2022/07/07 04:27:29;;;;;;;7.47;1.60;;;;;;;16.96;88.23;99663.97;1770384;80;21080;-77
2022/07/07 04:29:56;;;;;;;1.22;1.15;;;;;;;16.98;88.04;99664.58;1775658;80;21052;-80
2022/07/07 04:32:22;;;;;;;2.90;1.45;;;;;;;16.94;88.22;99667.38;1770240;80;21610;-78
2022/07/07 04:34:50;;;;;;;1.77;1.20;;;;;;;16.89;88.11;99668.52;1774756;80;20974;-77
2022/07/07 04:37:16;;;;;;;1.42;1.30;;;;;;;16.93;88.14;99670.27;1773835;80;21037;-77
2022/07/07 04:39:44;;;;;;;1.55;1.20;;;;;;;16.96;87.74;99664.47;1769424;80;21052;-79
2022/07/07 04:42:10;;;;;;;5.22;1.40;;;;;;;16.90;87.64;99668.32;1768116;80;21037;-79
2022/07/07 04:44:37;;;;;;;2.40;1.22;;;;;;;16.84;87.89;99671.85;1736381;80;21091;-77
2022/07/07 04:47:05;;;;;;;3.37;1.42;;;;;;;16.87;87.96;99672.75;1777865;80;21859;-78
2022/07/07 04:49:31;;;;;;;1.85;1.45;;;;;;;16.96;88.60;99670.67;1778808;80;21080;-80
2022/07/07 04:51:59;;;;;;;1.52;1.42;;;;;;;17.00;88.59;99673.24;1779054;80;21501;-79
2022/07/07 04:54:26;;;;;;;2.15;1.62;;;;;;;17.02;88.38;99671.69;1778961;79;21029;-77
2022/07/07 04:56:53;;;;;;;2.45;1.52;;;;;;;17.09;88.00;99676.00;1786338;79;21471;-78
2022/07/07 04:59:19;;;;;;;3.58;1.72;;;;;;;17.21;87.48;99673.97;1793978;79;21045;-77
2022/07/07 05:01:47;;;;;;;3.05;1.98;;;;;;;17.22;86.80;99670.27;1787468;79;21033;-78
2022/07/07 05:04:14;;;;;;;2.60;1.60;;;;;;;17.17;86.75;99684.83;1744186;79;21006;-78
2022/07/07 05:06:40;;;;;;;4.90;2.33;;;;;;;17.21;86.08;99685.55;1782981;79;21613;-78
2022/07/07 05:09:07;;;;;;;2.50;2.30;;;;;;;17.28;85.62;99690.88;1791546;79;21486;-77
2022/07/07 05:11:36;;;;;;;4.85;2.90;;;;;;;17.22;85.54;99693.08;1783501;79;21384;-78
2022/07/07 05:14:02;;;;;;;3.02;2.70;;;;;;;17.19;86.43;99694.34;1794309;79;21070;-79
2022/07/07 05:16:31;;;;;;;3.25;2.95;;;;;;;17.28;86.00;99697.59;1783575;79;21049;-78
2022/07/07 05:18:58;;;;;;;3.37;2.80;;;;;;;17.37;85.92;99700.34;1791782;79;21660;-77
2022/07/07 05:21:24;;;;;;;3.70;3.40;;;;;;;17.37;85.86;99694.16;1787725;79;21113;-77
2022/07/07 05:23:50;;;;;;;2.50;2.30;;;;;;;17.34;85.26;99694.58;1773673;79;21033;-78
2022/07/07 05:26:17;;;;;;;5.00;2.65;;;;;;;17.37;84.89;99694.16;1789709;79;21049;-79
2022/07/07 05:28:44;;;;;;;3.52;3.22;;;;;;;17.43;84.81;99698.67;1792390;79;21014;-78
2022/07/07 05:31:13;;;;;;;3.95;2.98;;;;;;;17.42;85.38;99705.91;1763738;79;21056;-77
2022/07/07 05:33:40;;;;;;;4.40;2.87;;;;;;;17.45;84.85;99702.78;1787538;79;21145;-76
2022/07/07 05:36:08;;;;;;;3.37;3.08;;;;;;;17.57;84.59;99710.17;1788266;79;21045;-78
2022/07/07 05:38:36;;;;;;;3.12;2.77;;;;;;;17.59;84.42;99708.91;1788123;79;20981;-78
2022/07/07 05:41:02;;;;;;;4.55;3.25;;;;;;;17.53;84.63;99698.20;1780963;79;21133;-79
2022/07/07 05:43:30;;;;;;;4.80;2.60;;;;;;;17.51;84.78;99699.77;1785449;79;21016;-78
2022/07/07 05:45:56;;;;;;;5.17;3.08;;;;;;;17.60;84.35;99694.98;1753153;79;21650;-79
2022/07/07 05:48:23;;;;;;;3.42;2.83;;;;;;;17.69;83.79;99699.03;1788811;79;21088;-78
2022/07/07 05:50:49;;;;;;;3.80;3.20;;;;;;;17.72;84.89;99691.90;1785155;79;21002;-79
2022/07/07 05:53:16;;;;;;;3.08;2.42;;;;;;;17.79;84.33;99696.72;1779093;79;21014;-79
2022/07/07 05:55:43;;;;;;;5.40;2.40;;;;;;;17.93;84.35;99702.86;1764717;80;21533;-77
2022/07/07 05:58:09;;;;;;;4.75;2.50;;;;;;;18.07;83.19;99703.05;1763828;80;21193;-77
2022/07/07 06:00:35;;;;;;;3.62;2.30;;;;;;;18.10;83.07;99706.34;1772561;80;21053;-76
2022/07/07 06:03:02;;;;;;;3.27;2.12;;;;;;;18.14;82.87;99694.11;1776931;80;21015;-77
2022/07/07 06:05:29;;;;;;;3.20;2.10;;;;;;;18.24;82.53;99697.97;1777850;80;21021;-75
2022/07/07 06:07:55;;;;;;;3.25;2.42;;;;;;;18.35;82.28;99701.82;1782057;80;21120;-77
2022/07/07 06:10:22;;;;;;;2.20;2.00;;;;;;;18.35;82.29;99703.16;1780339;79;21599;-74
2022/07/07 06:12:48;;;;;;;3.85;1.85;;;;;;;18.37;82.23;99709.64;1767339;80;21252;-76
2022/07/07 06:15:17;;;;;;;3.47;1.80;;;;;;;18.47;82.35;99714.02;1772790;80;21581;-77
2022/07/07 06:17:43;;;;;;;2.65;1.87;;;;;;;18.57;81.20;99718.37;1775505;80;21029;-79
2022/07/07 06:20:10;;;;;;;1.77;1.67;;;;;;;18.57;80.70;99721.59;1767655;80;21164;-77
2022/07/07 06:22:37;;;;;;;2.52;2.08;;;;;;;18.54;80.97;99730.09;1773265;80;21219;-84
2022/07/07 06:25:07;;;;;;;2.40;1.70;;;;;;;18.59;80.58;99726.23;1780538;80;21072;-79
2022/07/07 06:27:36;;;;;;;3.40;1.50;;;;;;;18.71;80.66;99719.06;1769938;80;21583;-82
2022/07/07 06:30:04;;;;;;;2.20;1.67;;;;;;;18.77;80.99;99729.47;1777170;80;21086;-82
2022/07/07 06:32:31;;;;;;;2.83;1.77;;;;;;;18.82;80.05;99729.14;1768425;80;21052;-80
2022/07/07 06:34:58;;;;;;;3.05;1.90;;;;;;;18.83;79.95;99733.98;1769118;80;21123;-82
2022/07/07 06:37:24;;;;;;;3.08;2.00;;;;;;;18.92;79.46;99734.00;1770929;80;21881;-84
2022/07/07 06:39:51;;;;;;;2.47;1.92;;;;;;;19.01;79.22;99738.59;1772870;80;21033;-82
2022/07/07 06:42:19;;;;;;;4.12;1.90;;;;;;;19.02;78.47;99743.72;1768441;79;21641;-82
2022/07/07 06:44:47;;;;;;;2.60;1.95;;;;;;;19.03;78.80;99746.73;1776765;79;20990;-80
2022/07/07 06:47:14;;;;;;;2.45;1.72;;;;;;;19.14;78.91;99745.67;1762708;80;21792;-81
2022/07/07 06:49:41;;;;;;;3.12;2.33;;;;;;;19.24;78.85;99748.69;1773188;79;21063;-81
2022/07/07 06:52:09;;;;;;;2.92;2.00;;;;;;;19.27;78.90;99749.57;1749068;80;21073;-82
2022/07/07 06:54:38;;;;;;;3.22;1.90;;;;;;;19.31;78.98;99748.59;1780406;79;21078;-82
2022/07/07 06:57:06;;;;;;;2.52;1.72;;;;;;;19.34;78.41;99750.33;1791340;79;21044;-77
2022/07/07 06:59:34;;;;;;;3.15;2.00;;;;;;;19.47;77.66;99742.62;1779056;79;21750;-80
2022/07/07 07:02:00;;;;;;;5.05;2.08;;;;;;;19.54;77.76;99744.68;1785169;78;21011;-76
2022/07/07 07:04:27;;;;;;;1.90;1.80;;;;;;;19.57;77.73;99744.77;1805819;78;21099;-77
2022/07/07 07:06:53;;;;;;;2.20;2.00;;;;;;;19.60;77.66;99746.46;1817499;78;21173;-77
2022/07/07 07:09:20;;;;;;;2.15;1.72;;;;;;;19.67;78.34;99742.88;1811668;78;20990;-83
2022/07/07 07:11:48;;;;;;;3.60;2.00;;;;;;;19.88;77.02;99742.94;1757916;80;21772;-81
2022/07/07 07:14:15;;;;;;;3.40;2.00;;;;;;;20.00;76.69;99741.91;1775200;80;21150;-81
2022/07/07 07:16:42;;;;;;;2.52;2.33;;;;;;;20.11;76.63;99740.81;1780220;80;21011;-82
2022/07/07 07:19:09;;;;;;;5.10;2.50;;;;;;;20.17;76.39;99742.08;1780467;80;21112;-81
2022/07/07 07:21:36;;;;;;;2.20;1.90;;;;;;;20.29;76.28;99740.75;1778447;79;21058;-80
2022/07/07 07:24:03;;;;;;;2.00;1.90;;;;;;;20.43;75.81;99741.35;1804841;79;21986;-78
2022/07/07 07:26:31;;;;;;;2.80;1.98;;;;;;;20.56;73.66;99738.44;1776839;79;21025;-78
2022/07/07 07:28:57;;;;;;;4.05;2.52;;;;;;;20.52;73.15;99747.24;1777696;79;21017;-80
2022/07/07 07:31:23;;;;;;;5.42;2.65;;;;;;;20.45;74.09;99751.92;1794774;79;20966;-80
2022/07/07 07:33:50;;;;;;;2.12;1.75;;;;;;;20.48;73.94;99751.46;1797447;78;20998;-79
2022/07/07 07:36:16;;;;;;;4.85;2.40;;;;;;;20.54;73.46;99749.17;1790476;79;21078;-79
2022/07/07 07:38:44;;;;;;;2.70;2.10;;;;;;;20.62;73.75;99752.36;1780625;80;20990;-78
2022/07/07 07:41:11;;;;;;;2.50;2.30;;;;;;;20.68;73.61;99751.96;1812520;78;21473;-79
2022/07/07 07:43:38;;;;;;;1.95;1.85;;;;;;;20.75;74.41;99750.52;1809101;78;21556;-79
2022/07/07 07:46:05;;;;;;;2.75;1.85;;;;;;;20.89;73.71;99745.69;1768110;80;21582;-81
2022/07/07 07:48:31;;;;;;;2.08;1.72;;;;;;;21.07;72.70;99741.48;1800740;79;21211;-77
2022/07/07 07:50:57;;;;;;;2.20;2.00;;;;;;;21.27;71.75;99737.60;1793121;78;21014;-78
2022/07/07 07:53:24;;;;;;;2.33;2.10;;;;;;;21.31;71.39;99741.47;1807412;78;21053;-81
2022/07/07 07:55:53;;;;;;;2.75;2.17;;;;;;;21.32;70.77;99741.20;1787425;78;21565;-80
2022/07/07 07:58:20;;;;;;;2.40;1.90;;;;;;;21.30;71.08;99739.27;1813233;78;21514;-80
2022/07/07 08:00:47;;;;;;;3.72;1.90;;;;;;;21.30;70.82;99744.67;1819946;78;21149;-82
2022/07/07 08:03:15;;;;;;;2.37;1.92;;;;;;;21.28;70.32;99747.33;1789262;80;21073;-77
2022/07/07 08:05:41;;;;;;;2.20;2.00;;;;;;;21.36;70.72;99745.09;1796921;78;21092;-78
2022/07/07 08:08:08;;;;;;;2.15;1.90;;;;;;;21.51;69.89;99747.83;1769444;79;21556;-80
2022/07/07 08:10:35;;;;;;;1.95;1.85;;;;;;;21.56;69.29;99746.59;1785409;78;21061;-80
2022/07/07 08:13:04;;;;;;;6.17;2.10;;;;;;;21.58;68.74;99750.69;1784920;80;21099;-76
2022/07/07 08:15:31;;;;;;;2.33;2.12;;;;;;;21.59;69.38;99755.55;1785373;78;21173;-80
2022/07/07 08:17:59;;;;;;;4.20;1.90;;;;;;;21.60;69.57;99754.51;1814449;78;21309;-82
2022/07/07 08:20:26;;;;;;;1.85;1.75;;;;;;;21.63;69.15;99755.91;1813818;78;21019;-81
2022/07/07 08:22:52;;;;;;;2.20;2.02;;;;;;;21.78;68.38;99756.20;1783367;80;21001;-80
2022/07/07 08:25:19;;;;;;;1.60;1.50;;;;;;;21.85;68.82;99762.28;1814884;78;21261;-80
2022/07/07 08:27:45;;;;;;;3.55;2.15;;;;;;;21.87;68.20;99758.00;1796259;79;21025;-80
2022/07/07 08:30:12;;;;;;;2.22;1.85;;;;;;;21.84;68.45;99761.98;1812218;78;21005;-79
2022/07/07 08:32:39;;;;;;;4.08;1.95;;;;;;;21.79;68.46;99763.26;1825547;78;21181;-79
2022/07/07 08:35:07;;;;;;;2.60;1.80;;;;;;;21.73;67.89;99763.69;1820339;78;21051;-79
2022/07/07 08:37:34;;;;;;;2.77;2.20;;;;;;;21.69;68.31;99769.80;1763669;80;21253;-77
2022/07/07 08:40:02;;;;;;;1.67;1.57;;;;;;;21.71;67.92;99762.27;1796569;78;21013;-79
2022/07/07 08:42:29;;;;;;;1.95;1.85;;;;;;;21.87;68.24;99768.81;1824892;78;20993;-81
2022/07/07 08:44:55;;;;;;;2.22;2.02;;;;;;;22.08;67.77;99769.98;1818051;78;21021;-79
2022/07/07 08:47:22;;;;;;;2.12;1.92;;;;;;;22.29;67.84;99767.13;1792615;79;21017;-78
2022/07/07 08:49:48;;;;;;;2.15;1.98;;;;;;;22.46;66.05;99768.50;1767142;79;23356;-77
2022/07/07 08:52:14;;;;;;;2.12;1.92;;;;;;;22.60;65.74;99765.77;1792945;78;21083;-78
2022/07/07 08:54:41;;;;;;;2.60;1.87;;;;;;;22.74;64.86;99769.77;1794710;78;21103;-77
2022/07/07 08:57:08;;;;;;;2.58;2.37;;;;;;;22.84;64.12;99779.13;1798180;79;21055;-81
2022/07/07 08:59:35;;;;;;;1.98;1.87;;;;;;;22.86;64.06;99776.44;1802320;79;21037;-79
2022/07/07 09:02:01;;;;;;;1.90;1.80;;;;;;;22.95;63.86;99778.21;1803021;79;21909;-78
2022/07/07 09:04:28;;;;;;;3.92;1.80;;;;;;;23.12;63.93;99780.89;1773811;79;21006;-78
2022/07/07 09:06:57;;;;;;;2.08;1.72;;;;;;;23.27;63.88;99780.30;1786383;79;21053;-78
2022/07/07 09:11:11;;;;;;;2.75;2.05;;;;;;;23.53;62.83;99793.65;1871573;75;22381;-77
2022/07/07 09:13:38;;;;;;;2.30;2.10;;;;;;;23.47;61.66;99791.92;1839032;77;20845;-80
2022/07/07 09:16:14;;;;;;;2.30;2.00;;;;;;;23.47;62.38;99797.34;1805124;78;21303;-80
2022/07/07 09:18:44;;;;;;;2.45;2.25;;;;;;;23.50;61.97;99796.84;1814637;78;20999;-79
2022/07/07 09:21:31;;;;;;;2.60;2.40;;;;;;;23.55;62.10;99792.86;1827840;77;21084;-79
2022/07/07 09:23:59;;;;;;;2.65;2.27;;;;;;;23.58;62.67;99803.72;1814631;78;21081;-78
2022/07/07 09:26:46;;;;;;;2.62;2.17;;;;;;;23.60;62.32;99802.39;1845107;77;20970;-79
2022/07/07 09:29:17;;;;;;;2.40;2.20;;;;;;;23.64;62.35;99799.48;1814640;77;21133;-82
2022/07/07 09:32:01;;;;;;;2.30;2.10;;;;;;;23.83;63.08;99802.69;1822856;77;21534;-80
2022/07/07 09:34:34;;;;;;;3.35;2.37;;;;;;;24.24;62.35;99792.80;1808090;77;21017;-78
2022/07/07 09:39:57;;;;;;;2.02;1.90;;;;;;;24.79;59.91;99795.73;1809378;77;21076;-79
2022/07/07 09:42:31;;;;;;;2.95;2.00;;;;;;;24.99;59.58;99797.77;1798430;78;21215;-79
2022/07/07 09:45:12;;;;;;;2.35;2.22;;;;;;;25.15;59.19;99787.83;1820340;77;20991;-79
2022/07/07 09:47:39;;;;;;;2.17;1.90;;;;;;;25.21;58.21;99800.91;1803966;77;21041;-82
2022/07/07 09:50:11;;;;;;;2.87;2.08;;;;;;;25.26;58.20;99799.03;1787023;78;20994;-80
2022/07/07 09:52:40;;;;;;;7.40;2.30;;;;;;;25.50;57.76;99794.00;1823576;77;21111;-78
2022/07/07 09:55:09;;;;;;;3.85;2.20;;;;;;;25.73;57.13;99797.88;1818508;77;21199;-80
2022/07/07 09:57:38;;;;;;;2.37;1.85;;;;;;;25.86;56.05;99798.73;1816247;77;21036;-80
2022/07/07 10:00:06;;;;;;;2.12;2.00;;;;;;;26.02;55.74;99796.89;1822816;77;21058;-77
2022/07/07 10:02:36;;;;;;;2.30;2.10;;;;;;;26.29;55.82;99796.14;1817625;77;21100;-78
2022/07/07 10:05:06;;;;;;;4.20;1.82;;;;;;;26.75;54.50;99787.70;1813612;77;21075;-80
2022/07/07 10:07:34;;;;;;;2.50;1.98;;;;;;;27.19;53.55;99796.06;1816986;77;21647;-76
2022/07/07 10:10:06;;;;;;;2.98;1.67;;;;;;;27.71;52.76;99793.99;1808934;76;20941;-79
2022/07/07 10:12:34;;;;;;;1.82;1.72;;;;;;;28.24;51.57;99787.42;1786434;78;20969;-79
2022/07/07 10:15:13;;;;;;;2.08;1.80;;;;;;;28.77;50.21;99793.56;1821042;78;21507;-78
2022/07/07 10:17:41;;;;;;;2.33;1.92;;;;;;;29.17;49.33;99793.48;1806768;77;21029;-75
2022/07/07 10:20:09;;;;;;;2.22;2.02;;;;;;;29.54;48.27;99800.16;1813128;77;21213;-79
2022/07/07 10:22:36;;;;;;;1.98;1.85;;;;;;;29.90;47.69;99794.21;1804094;77;21002;-78
2022/07/07 10:25:05;;;;;;;2.02;1.90;;;;;;;30.22;47.67;99794.84;1732823;80;21085;-78
2022/07/07 10:27:33;;;;;;;3.67;1.72;;;;;;;30.45;46.39;99791.77;1716354;81;21003;-76
2022/07/07 10:30:01;;;;;;;2.75;1.90;;;;;;;30.62;45.73;99797.23;1771797;79;21089;-81
2022/07/07 10:32:51;;;;;;;1.95;1.85;;;;;;;30.76;45.30;99797.53;1766347;80;21224;-78
2022/07/07 10:35:18;;;;;;;2.37;2.10;;;;;;;30.89;44.54;99794.59;1768615;79;21058;-81
2022/07/07 10:37:50;;;;;;;1.95;1.85;;;;;;;30.90;44.35;99792.66;1765271;80;21097;-80
2022/07/07 10:40:27;;;;;;;3.20;2.02;;;;;;;30.95;44.39;99802.17;1735075;80;21058;-83
2022/07/07 10:43:17;;;;;;;2.75;1.90;;;;;;;31.18;44.48;99796.25;1773192;80;21057;-80
2022/07/07 10:45:47;;;;;;;2.90;1.77;;;;;;;31.53;43.49;99798.05;1758018;80;21110;-80
2022/07/07 10:48:50;;;;;;;3.27;1.77;;;;;;;31.78;43.11;99797.25;1770671;80;21577;-80
2022/07/07 10:51:22;;;;;;;2.17;2.00;;;;;;;32.05;42.73;99787.58;1770867;79;21050;-79
2022/07/07 10:54:01;;;;;;;2.20;2.00;;;;;;;32.47;42.41;99781.35;1762444;80;21049;-78
2022/07/07 10:56:47;;;;;;;2.45;2.27;;;;;;;32.78;42.20;99782.50;1741357;80;21525;-82
2022/07/07 10:59:14;;;;;;;2.65;1.82;;;;;;;32.97;41.51;99776.78;1774361;80;21038;-84
2022/07/07 11:02:04;;;;;;;1.95;1.85;;;;;;;33.14;41.20;99776.88;1733535;80;21210;-80
2022/07/07 11:04:50;;;;;;;2.50;2.30;;;;;;;33.26;40.90;99774.89;1765170;79;21095;-87
2022/07/07 11:07:19;;;;;;;3.30;1.98;;;;;;;33.40;40.78;99772.00;1770642;79;21068;-87
2022/07/07 11:09:59;;;;;;;2.22;2.02;;;;;;;33.71;40.46;99782.97;1771021;77;21054;-87
2022/07/07 11:12:45;;;;;;;2.70;1.80;;;;;;;33.94;40.44;99791.07;1764572;80;21141;-81
2022/07/07 11:15:25;;;;;;;2.00;1.90;;;;;;;34.16;40.13;99787.39;1766900;80;21066;-82
2022/07/07 11:17:59;;;;;;;4.65;2.80;;;;;;;34.18;39.59;99784.54;1758676;80;21030;-82
2022/07/07 11:20:29;;;;;;;2.00;1.90;;;;;;;34.15;39.62;99793.99;1753673;79;21072;-82
2022/07/07 11:23:08;;;;;;;4.20;1.90;;;;;;;34.28;39.14;99788.91;1765692;80;21622;-83
2022/07/07 11:25:34;;;;;;;1.90;1.80;;;;;;;34.62;38.62;99792.18;1764312;79;21258;-83
2022/07/07 11:28:04;;;;;;;2.00;1.90;;;;;;;34.84;38.20;99794.50;1762805;80;21062;-83
2022/07/07 11:30:40;;;;;;;3.30;2.00;;;;;;;34.89;38.75;99800.40;1691048;80;21052;-84
2022/07/07 11:33:06;;;;;;;2.30;2.10;;;;;;;35.16;38.20;99795.04;1763167;80;21040;-87
2022/07/07 11:35:36;;;;;;;2.40;2.20;;;;;;;35.28;38.00;99792.98;1762989;80;21142;-82
2022/07/07 11:38:13;;;;;;;1.80;1.70;;;;;;;35.48;37.82;99796.92;1768623;80;20999;-85
2022/07/07 11:40:40;;;;;;;2.85;2.02;;;;;;;35.75;36.67;99796.44;1752552;80;21146;-84
2022/07/07 11:43:09;;;;;;;1.87;1.77;;;;;;;35.92;36.55;99790.55;1757344;79;21113;-84